Time;durP1;ratioP1;P1;durP2;ratioP2;P2;SDS_P1;SDS_P2;PMS_P1;PMS_P2;Temp;Humidity;BMP_temperature;BMP_pressure;BME280_temperature;BME280_humidity;BME280_pressure;Samples;Min_cycle;Max_cycle;Signal;HPM_P1;HPM_P2
2023/06/01 00:00:32;;;;;;;0.60;0.60;;;11.60;99.90;;;;;;4935066;29;20048;-59
2023/06/01 00:02:58;;;;;;;0.30;0.30;;;11.30;99.90;;;;;;4935039;29;20044;-60
2023/06/01 00:05:24;;;;;;;0.20;0.20;;;11.20;99.90;;;;;;4935038;29;20067;-60
2023/06/01 00:07:50;;;;;;;0.77;0.77;;;11.10;99.90;;;;;;4934790;29;20040;-60
2023/06/01 00:10:16;;;;;;;0.38;0.38;;;11.50;99.90;;;;;;4935051;29;20505;-59
2023/06/01 00:12:42;;;;;;;0.38;0.38;;;11.40;99.90;;;;;;4933942;29;20122;-59
2023/06/01 00:15:09;;;;;;;0.20;0.20;;;11.30;99.90;;;;;;4934940;29;20083;-59
2023/06/01 00:17:35;;;;;;;0.22;0.22;;;11.80;99.90;;;;;;4934805;29;20393;-60
2023/06/01 00:20:07;;;;;;;0.38;0.38;;;10.90;99.90;;;;;;4917805;29;20051;-59
2023/06/01 00:22:38;;;;;;;0.70;0.57;;;11.20;99.90;;;;;;4935060;29;20087;-59
2023/06/01 00:25:06;;;;;;;0.73;0.57;;;11.30;99.90;;;;;;4934969;29;20492;-59
2023/06/01 00:27:31;;;;;;;0.50;0.50;;;11.10;99.90;;;;;;4917632;29;20054;-59
2023/06/01 00:29:57;;;;;;;0.47;0.47;;;11.10;99.90;;;;;;4934266;29;20047;-59
2023/06/01 00:32:23;;;;;;;1.42;1.33;;;11.50;99.90;;;;;;4934678;29;20079;-59
2023/06/01 00:34:48;;;;;;;2.40;0.93;;;11.00;99.90;;;;;;4917660;29;20051;-59
2023/06/01 00:37:14;;;;;;;0.47;0.47;;;11.40;99.90;;;;;;4934071;29;20560;-59
2023/06/01 00:39:40;;;;;;;0.30;0.30;;;11.10;99.90;;;;;;4933812;29;20056;-59
2023/06/01 00:42:06;;;;;;;0.55;0.55;;;11.30;99.90;;;;;;4917843;29;20051;-59
2023/06/01 00:44:31;;;;;;;0.60;0.60;;;11.20;99.90;;;;;;4934582;29;20114;-59
2023/06/01 00:46:59;;;;;;;0.20;0.20;;;11.30;99.90;;;;;;4934525;29;20044;-60
2023/06/01 00:49:25;;;;;;;0.47;0.47;;;11.20;99.90;;;;;;4934367;29;20083;-59
2023/06/01 00:51:51;;;;;;;;;;;11.60;99.90;;;;;;4934996;29;20063;-62
2023/06/01 00:54:17;;;;;;;0.90;0.90;;;11.40;99.90;;;;;;4917426;29;19982;-60
2023/06/01 00:56:43;;;;;;;1.55;0.65;;;11.40;99.90;;;;;;4934551;29;20056;-60
2023/06/01 00:59:09;;;;;;;0.60;0.60;;;11.70;99.90;;;;;;4934397;29;20444;-59
2023/06/01 01:01:36;;;;;;;;;;;11.50;99.90;;;;;;4934813;29;20091;-59
2023/06/01 01:04:02;;;;;;;1.50;1.10;;;11.10;99.90;;;;;;4917402;29;20017;-59
2023/06/01 01:06:33;;;;;;;0.43;0.43;;;10.80;99.90;;;;;;4934474;29;20135;-60
2023/06/01 01:09:30;;;;;;;0.30;0.30;;;11.10;99.90;;;;;;4934378;29;20112;-59
2023/06/01 01:12:17;;;;;;;0.57;0.57;;;11.10;99.90;;;;;;4934296;29;20047;-60
2023/06/01 01:14:55;;;;;;;0.63;0.57;;;11.30;99.90;;;;;;4934437;29;20098;-59
2023/06/01 01:17:38;;;;;;;0.40;0.40;;;10.80;99.90;;;;;;4934392;29;20047;-59
2023/06/01 01:20:15;;;;;;;0.30;0.30;;;11.60;99.90;;;;;;4934238;29;20090;-59
2023/06/01 01:23:14;;;;;;;0.38;0.38;;;11.40;99.90;;;;;;4934193;29;20164;-59
2023/06/01 01:25:56;;;;;;;0.40;0.40;;;11.40;99.90;;;;;;4934293;29;20052;-60
2023/06/01 01:28:42;;;;;;;0.35;0.35;;;11.40;99.90;;;;;;4934078;29;20102;-59
2023/06/01 01:31:12;;;;;;;0.40;0.40;;;11.00;99.90;;;;;;4933997;29;20048;-59
2023/06/01 01:33:39;;;;;;;0.50;0.50;;;11.40;99.90;;;;;;4934199;29;20047;-59
2023/06/01 01:36:07;;;;;;;12.15;0.88;;;11.10;99.90;;;;;;4934180;29;20126;-59
2023/06/01 01:38:36;;;;;;;0.57;0.57;;;11.10;99.90;;;;;;4934135;29;20382;-59
2023/06/01 01:41:02;;;;;;;0.25;0.25;;;11.20;99.90;;;;;;4934244;29;20064;-59
2023/06/01 01:43:29;;;;;;;0.40;0.40;;;10.80;99.90;;;;;;4937547;29;20094;-59
2023/06/01 01:46:07;;;;;;;0.38;0.38;;;11.00;99.90;;;;;;4937435;29;20059;-60
2023/06/01 01:48:40;;;;;;;0.52;0.52;;;11.10;99.90;;;;;;4937547;29;20044;-60
2023/06/01 01:51:31;;;;;;;0.50;0.50;;;11.20;99.90;;;;;;4937565;29;20051;-59
2023/06/01 01:53:58;;;;;;;2.92;0.95;;;11.30;99.90;;;;;;4937344;29;20051;-59
2023/06/01 01:56:25;;;;;;;0.93;0.93;;;11.40;99.90;;;;;;4937578;29;20060;-59
2023/06/01 01:58:52;;;;;;;0.38;0.38;;;11.00;99.90;;;;;;4937412;29;20122;-60
2023/06/01 02:01:19;;;;;;;0.35;0.35;;;11.10;99.90;;;;;;4937394;29;20412;-60
2023/06/01 02:03:45;;;;;;;0.40;0.40;;;11.30;99.90;;;;;;4937282;29;20504;-59
2023/06/01 02:06:10;;;;;;;0.52;0.52;;;11.40;99.90;;;;;;4937179;29;20103;-59
2023/06/01 02:08:36;;;;;;;0.25;0.25;;;11.40;99.90;;;;;;4937014;29;20078;-59
2023/06/01 02:11:02;;;;;;;0.60;0.60;;;11.40;99.90;;;;;;4937294;29;20059;-59
2023/06/01 02:13:27;;;;;;;6.25;1.20;;;11.20;99.90;;;;;;4937238;29;20094;-60
2023/06/01 02:15:53;;;;;;;0.22;0.22;;;11.00;99.90;;;;;;4937096;29;20047;-59
2023/06/01 02:18:19;;;;;;;0.77;0.57;;;11.40;99.90;;;;;;4937091;29;20090;-59
2023/06/01 02:20:45;;;;;;;;;;;11.30;99.90;;;;;;4937369;29;20083;-59
2023/06/01 02:23:11;;;;;;;0.40;0.40;;;11.60;99.90;;;;;;4936857;29;20029;-59
2023/06/01 02:25:36;;;;;;;0.40;0.40;;;11.30;99.90;;;;;;4936788;29;20046;-59
2023/06/01 02:28:02;;;;;;;2.38;1.95;;;10.80;99.90;;;;;;4936958;29;20118;-59
2023/06/01 02:30:28;;;;;;;4.53;1.10;;;11.00;99.90;;;;;;4937198;29;20071;-60
2023/06/01 02:32:54;;;;;;;0.57;0.57;;;11.10;99.90;;;;;;4936945;29;20142;-59
2023/06/01 02:35:20;;;;;;;2.05;0.70;;;11.20;99.90;;;;;;4936725;29;20056;-59
2023/06/01 02:37:46;;;;;;;0.50;0.50;;;11.20;99.90;;;;;;4936568;29;20054;-59
2023/06/01 02:40:12;;;;;;;0.28;0.28;;;11.20;99.90;;;;;;4936801;29;20130;-59
2023/06/01 02:42:38;;;;;;;0.57;0.57;;;11.10;99.90;;;;;;4936730;29;20122;-59
2023/06/01 02:45:06;;;;;;;0.40;0.40;;;11.50;99.90;;;;;;4936598;29;20476;-59
2023/06/01 02:47:32;;;;;;;0.50;0.50;;;11.00;99.90;;;;;;4936365;29;20055;-59
2023/06/01 02:49:57;;;;;;;0.30;0.30;;;11.60;99.90;;;;;;4936393;29;20050;-59
2023/06/01 02:52:23;;;;;;;0.22;0.22;;;11.10;99.90;;;;;;4936309;29;20054;-60
2023/06/01 02:54:49;;;;;;;0.60;0.60;;;11.20;99.90;;;;;;4935607;29;20066;-59
2023/06/01 02:57:15;;;;;;;;;;;11.50;99.90;;;;;;4919771;29;20138;-59
2023/06/01 02:59:40;;;;;;;0.30;0.30;;;11.40;99.90;;;;;;4936499;29;20009;-59
2023/06/01 03:02:06;;;;;;;0.30;0.30;;;11.50;99.90;;;;;;4936396;29;20039;-59
2023/06/01 03:04:32;;;;;;;1.20;1.10;;;11.10;99.90;;;;;;4936086;29;20048;-59
2023/06/01 03:06:59;;;;;;;0.20;0.20;;;9.60;99.90;;;;;;4936014;29;20131;-59
2023/06/01 03:09:25;;;;;;;0.30;0.30;;;11.30;99.90;;;;;;4936448;29;20058;-59
2023/06/01 03:11:50;;;;;;;0.30;0.30;;;11.10;99.90;;;;;;4936150;29;20404;-59
2023/06/01 03:14:16;;;;;;;0.38;0.38;;;11.30;99.90;;;;;;4919005;29;20052;-59
2023/06/01 03:16:42;;;;;;;11.15;0.98;;;10.70;99.90;;;;;;4936092;29;20126;-59
2023/06/01 03:19:07;;;;;;;0.40;0.40;;;11.10;99.90;;;;;;4935894;29;20047;-59
2023/06/01 03:21:33;;;;;;;0.82;0.82;;;11.40;99.90;;;;;;4918734;29;20083;-59
2023/06/01 03:23:59;;;;;;;1.95;0.73;;;11.30;99.90;;;;;;4935911;29;20142;-59
2023/06/01 03:26:25;;;;;;;0.90;0.40;;;11.10;99.90;;;;;;4935817;29;20610;-59
2023/06/01 03:28:51;;;;;;;0.40;0.40;;;11.50;99.90;;;;;;4918611;29;20106;-59
2023/06/01 03:31:16;;;;;;;0.88;0.63;;;11.30;99.90;;;;;;4918760;29;20044;-59
2023/06/01 03:33:42;;;;;;;0.40;0.40;;;10.80;99.90;;;;;;4903072;29;20054;-59
2023/06/01 03:36:08;;;;;;;0.70;0.70;;;11.30;99.90;;;;;;4918478;29;20191;-59
2023/06/01 03:38:34;;;;;;;4.97;1.20;;;11.40;99.90;;;;;;4935647;29;20047;-59
2023/06/01 03:41:01;;;;;;;0.32;0.32;;;11.00;99.90;;;;;;4935592;29;20055;-59
2023/06/01 03:43:26;;;;;;;0.40;0.40;;;10.90;99.90;;;;;;4935528;29;20081;-59
2023/06/01 03:45:52;;;;;;;0.20;0.20;;;11.10;99.90;;;;;;4935390;29;20047;-58
2023/06/01 03:48:18;;;;;;;0.20;0.20;;;11.10;99.90;;;;;;4935327;29;20138;-59
2023/06/01 03:50:44;;;;;;;1.10;0.65;;;10.80;99.90;;;;;;4935269;29;20122;-59
2023/06/01 03:53:10;;;;;;;0.57;0.47;;;10.70;99.90;;;;;;4935100;29;20040;-59
2023/06/01 03:55:36;;;;;;;0.30;0.30;;;10.70;99.90;;;;;;4935287;29;20060;-60
2023/06/01 03:58:02;;;;;;;;;;;11.30;99.90;;;;;;4935652;29;20087;-59
2023/06/01 04:00:28;;;;;;;0.30;0.30;;;10.90;99.90;;;;;;4935155;29;19926;-59
2023/06/01 04:02:59;;;;;;;0.32;0.32;;;11.10;99.90;;;;;;4935162;29;20051;-59
2023/06/01 04:05:25;;;;;;;0.60;0.60;;;12.00;99.90;;;;;;4934191;29;20044;-59
2023/06/01 04:07:52;;;;;;;1.75;1.35;;;11.20;99.90;;;;;;4934869;29;20497;-59
2023/06/01 04:10:19;;;;;;;0.52;0.52;;;11.20;99.90;;;;;;4934066;29;20453;-59
2023/06/01 04:12:46;;;;;;;0.40;0.40;;;11.00;99.90;;;;;;4934866;29;20484;-59
2023/06/01 04:15:13;;;;;;;0.82;0.82;;;11.30;99.90;;;;;;4934960;29;20047;-59
2023/06/01 04:17:40;;;;;;;0.50;0.50;;;11.00;99.90;;;;;;4934900;29;20043;-58
2023/06/01 04:20:12;;;;;;;0.40;0.40;;;11.50;99.90;;;;;;4934743;29;20052;-58
2023/06/01 04:22:38;;;;;;;1.20;1.20;;;11.20;99.90;;;;;;4935105;29;20152;-58
2023/06/01 04:25:07;;;;;;;0.50;0.50;;;11.10;99.90;;;;;;4918209;29;20055;-58
2023/06/01 04:27:36;;;;;;;0.43;0.43;;;11.30;99.90;;;;;;4934902;29;20090;-58
2023/06/01 04:30:07;;;;;;;0.82;0.82;;;11.10;99.90;;;;;;4934708;29;20052;-58
2023/06/01 04:32:40;;;;;;;0.40;0.40;;;11.80;99.90;;;;;;4934642;29;20455;-58
2023/06/01 04:35:06;;;;;;;0.63;0.63;;;11.50;99.90;;;;;;4934783;29;20130;-58
2023/06/01 04:37:34;;;;;;;1.42;0.55;;;11.00;99.90;;;;;;4934737;29;20067;-58
2023/06/01 04:40:01;;;;;;;1.17;0.57;;;11.30;99.90;;;;;;4934546;29;20055;-58
2023/06/01 04:42:27;;;;;;;0.68;0.68;;;11.00;99.90;;;;;;4934532;29;20527;-59
2023/06/01 04:44:53;;;;;;;0.70;0.40;;;11.70;99.90;;;;;;4917494;29;20074;-58
2023/06/01 04:47:21;;;;;;;0.38;0.38;;;11.50;99.90;;;;;;4934354;29;20062;-58
2023/06/01 04:49:47;;;;;;;1.00;0.95;;;11.50;99.90;;;;;;4917462;29;20095;-59
2023/06/01 04:52:13;;;;;;;0.25;0.25;;;11.10;99.90;;;;;;4934551;29;20134;-59
2023/06/01 04:54:38;;;;;;;0.50;0.50;;;10.90;99.90;;;;;;4934429;29;20055;-58
2023/06/01 04:57:07;;;;;;;0.82;0.82;;;11.60;99.90;;;;;;4934440;29;20066;-59
2023/06/01 04:59:33;;;;;;;0.40;0.40;;;11.50;99.90;;;;;;4934305;29;20048;-59
2023/06/01 05:02:00;;;;;;;1.65;0.50;;;11.30;99.90;;;;;;4917362;29;20051;-58
2023/06/01 05:04:25;;;;;;;0.60;0.60;;;11.30;99.90;;;;;;4934471;29;20405;-59
2023/06/01 05:06:51;;;;;;;0.20;0.20;;;11.40;99.90;;;;;;4934409;29;20043;-59
2023/06/01 05:09:18;;;;;;;0.60;0.60;;;11.50;99.90;;;;;;4934325;29;20048;-59
2023/06/01 05:11:44;;;;;;;0.45;0.45;;;11.40;99.90;;;;;;4934302;29;20087;-59
2023/06/01 05:14:09;;;;;;;1.42;0.70;;;11.70;99.90;;;;;;4934196;29;20141;-59
2023/06/01 05:16:35;;;;;;;3.88;3.13;;;11.50;99.90;;;;;;4935491;29;20048;-59
2023/06/01 05:19:01;;;;;;;0.60;0.60;;;11.60;99.90;;;;;;4938400;29;20039;-59
2023/06/01 05:21:27;;;;;;;;;;;11.20;99.90;;;;;;4938487;29;20062;-59
2023/06/01 05:23:53;;;;;;;0.30;0.30;;;11.20;99.90;;;;;;4938067;29;19923;-61
2023/06/01 05:26:19;;;;;;;0.20;0.20;;;11.20;99.90;;;;;;4937966;29;20051;-60
2023/06/01 05:28:44;;;;;;;5.88;1.05;;;11.60;99.90;;;;;;4937797;29;20094;-59
2023/06/01 05:31:11;;;;;;;0.40;0.40;;;11.40;99.90;;;;;;4937675;29;20044;-59
2023/06/01 05:33:36;;;;;;;0.30;0.30;;;11.70;99.90;;;;;;4905321;29;20511;-59
2023/06/01 05:36:02;;;;;;;0.30;0.30;;;11.50;99.90;;;;;;4937858;29;20054;-59
2023/06/01 05:38:28;;;;;;;0.20;0.20;;;11.30;99.90;;;;;;4937821;29;20094;-59
2023/06/01 05:40:54;;;;;;;0.63;0.63;;;11.20;99.90;;;;;;4937671;29;20087;-59
2023/06/01 05:43:20;;;;;;;0.20;0.20;;;11.20;99.90;;;;;;4937636;29;20083;-59
2023/06/01 05:45:46;;;;;;;0.40;0.40;;;11.40;99.90;;;;;;4937396;29;20365;-60
2023/06/01 05:48:13;;;;;;;0.30;0.30;;;11.60;99.90;;;;;;4937636;29;20083;-60
2023/06/01 05:50:40;;;;;;;0.20;0.20;;;11.30;99.90;;;;;;4937590;29;20055;-59
2023/06/01 05:53:07;;;;;;;0.20;0.20;;;11.20;99.90;;;;;;4920421;29;20059;-59
2023/06/01 05:55:32;;;;;;;;;;;11.70;99.90;;;;;;4937885;29;20170;-59
2023/06/01 05:57:58;;;;;;;0.35;0.35;;;12.80;99.90;;;;;;4937295;29;19930;-59
2023/06/01 06:00:24;;;;;;;0.45;0.45;;;11.40;99.90;;;;;;4937244;29;20052;-59
2023/06/01 06:02:50;;;;;;;;;;;11.10;99.90;;;;;;4937849;29;20051;-59
2023/06/01 06:05:15;;;;;;;0.40;0.40;;;12.00;99.90;;;;;;4937366;29;19929;-59
2023/06/01 06:07:41;;;;;;;1.35;0.30;;;11.90;99.90;;;;;;4937104;29;20556;-59
2023/06/01 06:10:08;;;;;;;0.20;0.20;;;11.60;99.90;;;;;;4937202;29;20448;-59
2023/06/01 06:12:33;;;;;;;0.40;0.32;;;11.80;99.90;;;;;;4937127;29;20381;-59
2023/06/01 06:14:59;;;;;;;0.30;0.30;;;11.30;99.90;;;;;;4937089;29;20058;-59
2023/06/01 06:17:25;;;;;;;0.43;0.43;;;11.90;99.90;;;;;;4937517;29;20110;-59
2023/06/01 06:19:51;;;;;;;0.30;0.30;;;11.40;99.90;;;;;;4937061;29;20054;-59
2023/06/01 06:22:16;;;;;;;0.20;0.20;;;11.90;99.90;;;;;;4936990;29;20051;-59
2023/06/01 06:24:42;;;;;;;0.22;0.22;;;11.30;99.90;;;;;;4919854;29;20055;-59
2023/06/01 06:27:11;;;;;;;2.45;0.60;;;11.90;99.90;;;;;;4936848;29;20043;-59
2023/06/01 06:29:36;;;;;;;0.20;0.20;;;11.50;99.90;;;;;;4935724;29;20044;-59
2023/06/01 06:32:02;;;;;;;0.30;0.30;;;11.90;99.90;;;;;;4919837;29;20516;-59
2023/06/01 06:34:35;;;;;;;0.13;0.13;;;11.80;99.90;;;;;;4936795;29;20091;-59
2023/06/01 06:37:07;;;;;;;0.80;0.77;;;11.70;99.90;;;;;;4936748;29;20056;-59
2023/06/01 06:39:33;;;;;;;0.22;0.22;;;11.60;99.90;;;;;;4936623;29;20500;-59
2023/06/01 06:42:03;;;;;;;0.28;0.28;;;11.70;99.90;;;;;;4936446;29;20043;-59
2023/06/01 06:44:29;;;;;;;0.70;0.40;;;11.80;99.90;;;;;;4930177;29;20039;-61
2023/06/01 06:46:57;;;;;;;0.43;0.43;;;11.80;99.90;;;;;;4935806;29;20142;-60
2023/06/01 06:49:24;;;;;;;0.20;0.20;;;11.60;99.90;;;;;;4936470;29;20050;-60
2023/06/01 06:51:50;;;;;;;0.25;0.25;;;11.60;99.90;;;;;;4936243;29;20047;-59
2023/06/01 06:54:16;;;;;;;;;;;11.50;99.90;;;;;;4935240;29;20055;-60
2023/06/01 06:56:43;;;;;;;0.20;0.20;;;11.90;99.90;;;;;;4930369;29;19931;-59
2023/06/01 06:59:09;;;;;;;0.38;0.38;;;11.60;99.90;;;;;;4917469;29;20481;-59
2023/06/01 07:01:35;;;;;;;;;;;11.80;99.90;;;;;;4936169;29;20043;-60
2023/06/01 07:04:03;;;;;;;1.13;0.70;;;11.20;99.90;;;;;;4932167;29;19926;-61
2023/06/01 07:06:29;;;;;;;0.20;0.20;;;11.20;99.90;;;;;;4950345;28;20060;-60
2023/06/01 07:08:56;;;;;;;0.20;0.20;;;11.60;99.90;;;;;;4918580;29;20167;-61
2023/06/01 07:11:23;;;;;;;0.40;0.40;;;11.90;99.90;;;;;;4934288;29;20066;-60
2023/06/01 07:13:50;;;;;;;0.73;0.73;;;11.50;99.90;;;;;;4934491;29;20086;-59
2023/06/01 07:16:16;;;;;;;0.20;0.20;;;11.70;99.90;;;;;;4935079;29;20055;-59
2023/06/01 07:18:42;;;;;;;;;;;12.40;99.90;;;;;;4934828;29;20058;-60
2023/06/01 07:21:08;;;;;;;0.20;0.20;;;12.30;99.90;;;;;;4934056;29;19923;-58
2023/06/01 07:23:34;;;;;;;;;;;11.80;99.90;;;;;;4935814;29;20086;-61
2023/06/01 07:26:00;;;;;;;0.20;0.20;;;11.40;99.90;;;;;;4917548;29;19934;-61
2023/06/01 07:28:27;;;;;;;;;;;11.60;99.90;;;;;;4934014;29;20055;-61
2023/06/01 07:30:53;;;;;;;0.20;0.20;;;11.20;99.90;;;;;;4934860;29;20307;-61
2023/06/01 07:33:20;;;;;;;0.20;0.20;;;11.80;99.90;;;;;;4935390;29;20058;-61
2023/06/01 07:35:47;;;;;;;1.65;1.50;;;11.70;99.90;;;;;;4934114;29;20078;-61
2023/06/01 07:38:13;;;;;;;;;;;11.90;99.90;;;;;;4935576;29;20087;-61
2023/06/01 07:40:39;;;;;;;0.52;0.50;;;11.60;99.90;;;;;;4927077;29;19966;-60
2023/06/01 07:43:05;;;;;;;;;;;11.50;99.90;;;;;;4915258;29;20107;-60
2023/06/01 07:45:31;;;;;;;0.43;0.43;;;11.40;99.90;;;;;;4921687;29;19973;-60
2023/06/01 07:47:57;;;;;;;0.30;0.30;;;11.20;99.90;;;;;;4933886;29;20043;-59
2023/06/01 07:50:28;;;;;;;0.75;0.75;;;12.20;99.90;;;;;;4934853;29;20055;-60
2023/06/01 07:52:53;;;;;;;0.30;0.30;;;11.30;99.90;;;;;;4934508;29;20429;-60
2023/06/01 07:55:19;;;;;;;0.32;0.32;;;12.30;99.90;;;;;;4934868;29;20056;-59
2023/06/01 07:57:45;;;;;;;0.30;0.30;;;11.70;99.90;;;;;;4934375;29;20496;-60
2023/06/01 08:00:12;;;;;;;0.35;0.30;;;11.10;99.90;;;;;;4931756;29;20055;-60
2023/06/01 08:02:38;;;;;;;0.75;0.75;;;11.90;99.90;;;;;;4898238;29;20058;-60
2023/06/01 08:05:05;;;;;;;1.17;0.80;;;11.30;99.90;;;;;;4914893;29;20401;-60
2023/06/01 08:07:30;;;;;;;0.85;0.85;;;11.30;99.90;;;;;;4914917;29;20460;-60
2023/06/01 08:09:57;;;;;;;0.38;0.38;;;11.30;99.90;;;;;;4915215;29;20056;-59
2023/06/01 08:12:23;;;;;;;0.35;0.35;;;11.70;99.90;;;;;;4916163;29;20059;-60
2023/06/01 08:14:49;;;;;;;0.68;0.47;;;11.90;99.90;;;;;;4916215;29;20051;-59
2023/06/01 08:17:15;;;;;;;0.30;0.30;;;12.30;99.90;;;;;;4915901;29;20426;-60
2023/06/01 08:19:42;;;;;;;0.75;0.75;;;12.40;99.90;;;;;;4915919;29;20074;-60
2023/06/01 08:22:07;;;;;;;0.90;0.90;;;12.50;99.90;;;;;;4915566;29;20147;-60
2023/06/01 08:24:34;;;;;;;0.38;0.38;;;12.40;99.90;;;;;;4915836;29;20131;-60
2023/06/01 08:27:00;;;;;;;;;;;12.30;99.90;;;;;;4899287;29;20453;-60
2023/06/01 08:29:26;;;;;;;0.30;0.30;;;12.20;99.90;;;;;;4915524;29;19927;-59
2023/06/01 08:31:52;;;;;;;0.20;0.20;;;11.70;99.90;;;;;;4915782;29;20056;-60
2023/06/01 08:34:19;;;;;;;0.22;0.22;;;12.60;99.90;;;;;;4915462;29;20052;-60
2023/06/01 08:36:45;;;;;;;0.93;0.93;;;12.00;99.90;;;;;;4915268;29;20052;-60
2023/06/01 08:39:24;;;;;;;0.65;0.65;;;13.70;99.90;;;;;;4915725;29;20102;-60
2023/06/01 08:42:05;;;;;;;0.32;0.32;;;12.70;99.90;;;;;;4915702;29;20083;-60
2023/06/01 08:44:37;;;;;;;0.45;0.30;;;12.50;99.90;;;;;;4915470;29;20135;-60
2023/06/01 08:47:03;;;;;;;0.10;0.10;;;12.40;99.90;;;;;;4915559;29;20060;-59
2023/06/01 08:49:31;;;;;;;0.25;0.25;;;12.50;99.90;;;;;;4915137;29;20091;-60
2023/06/01 08:51:59;;;;;;;0.60;0.60;;;12.20;99.90;;;;;;4915168;29;20056;-60
2023/06/01 08:54:26;;;;;;;4.90;1.27;;;12.70;99.90;;;;;;4915139;29;20147;-60
2023/06/01 08:56:52;;;;;;;0.40;0.40;;;11.80;99.90;;;;;;4915401;29;20064;-60
2023/06/01 08:59:17;;;;;;;0.40;0.40;;;12.30;99.90;;;;;;4915438;29;20047;-60
2023/06/01 09:01:45;;;;;;;0.43;0.43;;;12.30;99.90;;;;;;4915171;29;20460;-61
2023/06/01 09:04:13;;;;;;;0.40;0.40;;;12.00;99.90;;;;;;4915324;29;20079;-60
2023/06/01 09:06:41;;;;;;;0.40;0.40;;;12.50;99.90;;;;;;4915473;29;20052;-60
2023/06/01 09:09:11;;;;;;;0.60;0.60;;;12.40;99.90;;;;;;4915060;29;20043;-60
2023/06/01 09:11:36;;;;;;;0.38;0.38;;;12.30;99.90;;;;;;4929460;29;20154;-60
2023/06/01 09:14:18;;;;;;;0.30;0.30;;;12.40;99.90;;;;;;4915121;29;20624;-60
2023/06/01 09:16:44;;;;;;;0.20;0.20;;;12.00;99.90;;;;;;4914026;29;20462;-60
2023/06/01 09:19:10;;;;;;;0.77;0.35;;;12.60;99.90;;;;;;4915387;29;20165;-59
2023/06/01 09:21:35;;;;;;;0.43;0.43;;;12.10;99.90;;;;;;4915142;29;20056;-60
2023/06/01 09:24:21;;;;;;;0.88;0.60;;;12.70;99.90;;;;;;4915225;29;20524;-60
2023/06/01 09:26:50;;;;;;;0.30;0.30;;;12.60;99.90;;;;;;4914907;29;20060;-60
2023/06/01 09:29:17;;;;;;;0.10;0.10;;;12.90;99.90;;;;;;4915289;29;20048;-60
2023/06/01 09:31:49;;;;;;;0.40;0.40;;;12.80;99.90;;;;;;4915033;29;20180;-60
2023/06/01 09:34:18;;;;;;;0.28;0.28;;;12.90;99.90;;;;;;4915005;29;20059;-60
2023/06/01 09:36:48;;;;;;;0.55;0.55;;;12.70;99.90;;;;;;4929368;29;20405;-60
2023/06/01 09:39:19;;;;;;;1.55;0.95;;;13.00;99.90;;;;;;4914869;29;20095;-60
2023/06/01 09:41:51;;;;;;;0.35;0.35;;;12.90;99.90;;;;;;4915153;29;20059;-60
2023/06/01 09:44:34;;;;;;;0.52;0.52;;;12.60;99.90;;;;;;4915022;29;20056;-60
2023/06/01 09:47:05;;;;;;;0.55;0.30;;;12.80;99.90;;;;;;4915042;29;20048;-59
2023/06/01 09:49:39;;;;;;;0.40;0.40;;;12.80;99.90;;;;;;4914842;29;20100;-60
2023/06/01 09:52:05;;;;;;;0.20;0.20;;;13.00;99.90;;;;;;4915172;29;20052;-60
2023/06/01 09:54:33;;;;;;;1.92;0.73;;;12.90;99.90;;;;;;4915021;29;20100;-60
2023/06/01 09:57:01;;;;;;;0.20;0.20;;;12.50;99.90;;;;;;4929685;29;20413;-60
2023/06/01 09:59:28;;;;;;;0.40;0.40;;;13.00;99.90;;;;;;4929486;29;20503;-60
2023/06/01 10:01:58;;;;;;;0.10;0.10;;;12.30;99.90;;;;;;4914899;29;20052;-60
2023/06/01 10:04:27;;;;;;;1.15;0.95;;;12.70;99.90;;;;;;4917114;29;20059;-60
2023/06/01 10:06:55;;;;;;;0.75;0.75;;;12.70;99.90;;;;;;4918726;29;20555;-59
2023/06/01 10:09:24;;;;;;;0.47;0.47;;;12.80;99.90;;;;;;4918309;29;20051;-60
2023/06/01 10:11:53;;;;;;;0.52;0.50;;;12.80;99.90;;;;;;4901300;29;20080;-60
2023/06/01 10:14:23;;;;;;;0.75;0.40;;;13.20;99.90;;;;;;4932639;29;20095;-60
2023/06/01 10:16:51;;;;;;;0.63;0.63;;;13.00;99.90;;;;;;4918078;29;20048;-60
2023/06/01 10:19:18;;;;;;;0.22;0.22;;;12.90;99.90;;;;;;4918237;29;20052;-60
2023/06/01 10:21:47;;;;;;;0.57;0.45;;;12.80;99.90;;;;;;4918115;29;20055;-59
2023/06/01 10:24:22;;;;;;;0.52;0.52;;;13.10;99.90;;;;;;4917998;29;20047;-60
2023/06/01 10:27:16;;;;;;;0.50;0.45;;;13.40;99.90;;;;;;4900945;29;20438;-60
2023/06/01 10:29:43;;;;;;;1.00;0.80;;;13.00;99.90;;;;;;4918008;29;20520;-60
2023/06/01 10:32:40;;;;;;;0.47;0.32;;;13.40;99.90;;;;;;4918062;29;20100;-60
2023/06/01 10:35:12;;;;;;;0.43;0.43;;;13.70;99.90;;;;;;4917784;29;20052;-60
2023/06/01 10:37:38;;;;;;;0.65;0.45;;;13.40;99.90;;;;;;4917691;29;20138;-60
2023/06/01 10:40:23;;;;;;;1.98;0.47;;;13.20;99.90;;;;;;4917851;29;20146;-60
2023/06/01 10:42:49;;;;;;;9.52;0.90;;;13.20;99.90;;;;;;4917795;29;20055;-59
2023/06/01 10:45:41;;;;;;;0.35;0.35;;;13.20;99.90;;;;;;4917728;29;20111;-60
2023/06/01 10:48:11;;;;;;;0.40;0.40;;;13.20;99.90;;;;;;4915499;29;20144;-60
2023/06/01 10:50:38;;;;;;;0.57;0.30;;;13.40;99.90;;;;;;4917702;29;20052;-59
2023/06/01 10:53:27;;;;;;;0.30;0.30;;;13.60;99.90;;;;;;4917577;29;20062;-60
2023/06/01 10:56:17;;;;;;;0.30;0.30;;;13.70;99.90;;;;;;4917623;29;20055;-60
2023/06/01 10:58:43;;;;;;;2.30;1.27;;;13.50;99.90;;;;;;4917364;29;20177;-59
2023/06/01 11:01:17;;;;;;;0.30;0.30;;;13.40;99.90;;;;;;4917441;29;20143;-60
2023/06/01 11:03:49;;;;;;;0.40;0.40;;;13.20;99.90;;;;;;4932200;29;20064;-60
2023/06/01 11:06:45;;;;;;;0.55;0.55;;;13.00;99.90;;;;;;4917244;29;20048;-59
2023/06/01 11:09:11;;;;;;;0.88;0.85;;;13.00;99.90;;;;;;4908692;29;20060;-60
2023/06/01 11:11:52;;;;;;;0.35;0.35;;;13.00;99.90;;;;;;4917237;29;20059;-60
2023/06/01 11:14:19;;;;;;;0.30;0.30;;;13.50;99.90;;;;;;4916671;29;20413;-60
2023/06/01 11:16:45;;;;;;;0.30;0.30;;;12.90;99.90;;;;;;4917011;29;20059;-60
2023/06/01 11:19:18;;;;;;;0.30;0.30;;;13.50;99.90;;;;;;4931583;29;20048;-60
2023/06/01 11:21:44;;;;;;;0.70;0.57;;;13.50;99.90;;;;;;4917126;29;20100;-60
2023/06/01 11:24:14;;;;;;;0.47;0.43;;;13.30;99.90;;;;;;4917030;29;20476;-60
2023/06/01 11:26:42;;;;;;;0.80;0.80;;;13.50;99.90;;;;;;4916887;29;20095;-60
2023/06/01 11:29:17;;;;;;;0.45;0.45;;;13.40;99.90;;;;;;4916634;29;20509;-60
2023/06/01 11:31:53;;;;;;;0.10;0.10;;;13.40;99.90;;;;;;4916730;29;20098;-60
2023/06/01 11:34:26;;;;;;;0.37;0.37;;;13.40;99.90;;;;;;4916901;29;20457;-59
2023/06/01 11:36:52;;;;;;;0.40;0.40;;;13.30;99.90;;;;;;4931583;29;20047;-59
2023/06/01 11:39:28;;;;;;;0.38;0.38;;;13.40;99.90;;;;;;4915413;29;20048;-60
2023/06/01 11:42:12;;;;;;;0.25;0.25;;;13.50;99.90;;;;;;4916537;29;20060;-60
2023/06/01 11:44:40;;;;;;;0.45;0.45;;;13.60;99.90;;;;;;4916407;29;20048;-60
2023/06/01 11:47:07;;;;;;;0.22;0.22;;;13.90;99.90;;;;;;4916421;29;20581;-60
2023/06/01 11:49:48;;;;;;;0.20;0.20;;;13.70;99.90;;;;;;4916386;29;20122;-60
2023/06/01 11:52:15;;;;;;;0.30;0.30;;;13.60;99.90;;;;;;4916484;29;20764;-60
2023/06/01 11:54:41;;;;;;;0.47;0.47;;;13.00;99.90;;;;;;4916083;29;20493;-59
2023/06/01 11:57:07;;;;;;;0.30;0.30;;;13.30;99.90;;;;;;4930931;29;20052;-60
2023/06/01 11:59:40;;;;;;;0.73;0.73;;;13.30;99.90;;;;;;4916702;29;20048;-60
2023/06/01 12:02:24;;;;;;;0.25;0.25;;;13.40;99.90;;;;;;4916426;29;20052;-59
2023/06/01 12:05:08;;;;;;;2.78;1.75;;;13.20;99.90;;;;;;4916242;29;20067;-59
2023/06/01 12:07:50;;;;;;;0.32;0.32;;;12.90;99.90;;;;;;4916308;29;20047;-59
2023/06/01 12:10:18;;;;;;;0.15;0.15;;;12.70;99.90;;;;;;4899221;29;20623;-59
2023/06/01 12:12:45;;;;;;;0.30;0.30;;;13.10;99.90;;;;;;4916019;29;20044;-59
2023/06/01 12:15:20;;;;;;;1.88;0.68;;;13.10;99.90;;;;;;4915928;29;20535;-59
2023/06/01 12:17:53;;;;;;;0.40;0.40;;;12.80;99.90;;;;;;4915837;29;20556;-59
2023/06/01 12:20:45;;;;;;;0.30;0.30;;;13.10;99.90;;;;;;4916047;29;20503;-59
2023/06/01 12:23:19;;;;;;;0.20;0.20;;;13.00;99.90;;;;;;4913867;29;20147;-59
2023/06/01 12:25:52;;;;;;;2.08;0.68;;;12.90;99.90;;;;;;4914292;29;20064;-59
2023/06/01 12:28:19;;;;;;;0.17;0.17;;;12.90;99.90;;;;;;4915080;29;20080;-60
2023/06/01 12:30:45;;;;;;;0.63;0.25;;;13.20;99.90;;;;;;4927513;29;20123;-59
2023/06/01 12:33:30;;;;;;;0.13;0.13;;;13.00;99.90;;;;;;4934495;29;20079;-59
2023/06/01 12:35:56;;;;;;;0.90;0.38;;;13.40;99.90;;;;;;4934069;29;20602;-60
2023/06/01 12:38:22;;;;;;;0.30;0.30;;;13.30;99.90;;;;;;4917526;29;20063;-59
2023/06/01 12:41:04;;;;;;;;;;;13.60;99.90;;;;;;4934728;29;20116;-60
2023/06/01 12:43:30;;;;;;;3.85;0.90;;;13.50;99.90;;;;;;4934356;29;19982;-60
2023/06/01 12:45:56;;;;;;;;;;;13.70;99.90;;;;;;4934506;29;20054;-60
2023/06/01 12:48:33;;;;;;;0.20;0.20;;;14.10;99.90;;;;;;4917014;29;19976;-60
2023/06/01 12:50:59;;;;;;;0.20;0.20;;;14.30;99.90;;;;;;4934242;29;20143;-60
2023/06/01 12:53:24;;;;;;;;;;;14.20;99.90;;;;;;4934322;29;20074;-60
2023/06/01 12:55:50;;;;;;;0.40;0.40;;;14.20;99.90;;;;;;4933913;29;20363;-60
2023/06/01 12:58:16;;;;;;;;;;;14.20;99.90;;;;;;4934391;29;20054;-60
2023/06/01 13:00:42;;;;;;;0.20;0.20;;;13.80;99.90;;;;;;4933811;29;19955;-59